Time;durP1;ratioP1;P1;durP2;ratioP2;P2;SDS_P1;SDS_P2;PMS_P1;PMS_P2;Temp;Humidity;BMP_temperature;BMP_pressure;BME280_temperature;BME280_humidity;BME280_pressure;Samples;Min_cycle;Max_cycle;Signal;HPM_P1;HPM_P2
2022/12/02 00:01:21;;;;;;;64.25;36.85;;;;;;;9.84;57.24;102504.00;4905533;29;20106;-70
2022/12/02 00:03:48;;;;;;;65.20;37.35;;;;;;;9.81;57.13;102510.38;4935941;29;20046;-71
2022/12/02 00:06:23;;;;;;;68.63;37.38;;;;;;;9.77;56.86;102498.03;4919310;29;20115;-72
2022/12/02 00:08:50;;;;;;;65.50;38.50;;;;;;;9.77;57.32;102491.78;4920682;29;20052;-71
2022/12/02 00:11:26;;;;;;;71.88;37.55;;;;;;;9.77;57.31;102494.47;4917043;29;20556;-71
2022/12/02 00:13:55;;;;;;;62.83;36.20;;;;;;;9.76;57.14;102492.72;4920474;29;20055;-70
2022/12/02 00:16:24;;;;;;;62.65;35.63;;;;;;;9.75;57.33;102488.31;4920934;29;20043;-71
2022/12/02 00:18:53;;;;;;;59.72;36.40;;;;;;;9.72;56.91;102481.25;4904162;29;20059;-71
2022/12/02 00:21:21;;;;;;;62.33;33.97;;;;;;;9.69;57.23;102483.19;4904493;29;20040;-71
2022/12/02 00:23:47;;;;;;;58.78;33.63;;;;;;;9.69;57.32;102475.13;4903627;29;20555;-70
2022/12/02 00:26:17;;;;;;;60.38;34.15;;;;;;;9.69;57.36;102475.13;4920759;29;20503;-71
2022/12/02 00:28:43;;;;;;;63.50;35.78;;;;;;;9.67;57.32;102479.69;4923164;29;20106;-71
2022/12/02 00:31:10;;;;;;;60.75;34.88;;;;;;;9.66;57.26;102473.47;4939818;29;20542;-71
2022/12/02 00:33:36;;;;;;;60.25;33.72;;;;;;;9.65;57.06;102473.50;4922185;29;20051;-71
2022/12/02 00:36:03;;;;;;;63.80;36.42;;;;;;;9.63;57.16;102470.88;4922470;29;20434;-71
2022/12/02 00:38:30;;;;;;;62.15;35.00;;;;;;;9.63;57.02;102470.00;4939592;29;20099;-71
2022/12/02 00:40:58;;;;;;;66.18;36.80;;;;;;;9.62;57.45;102471.81;4922537;29;20040;-71
2022/12/02 00:48:55;;;;;;;62.38;34.45;;;;;;;9.60;57.43;102468.31;4922306;29;20414;-71
2022/12/02 00:51:22;;;;;;;62.40;36.00;;;;;;;9.61;57.14;102466.50;4939629;29;20044;-72
2022/12/02 00:53:48;;;;;;;66.05;37.30;;;;;;;9.60;57.19;102476.34;4939213;29;20114;-71
2022/12/02 00:56:15;;;;;;;64.93;36.53;;;;;;;9.61;57.29;102471.88;4936703;29;20044;-70
2022/12/02 00:58:41;;;;;;;61.83;35.53;;;;;;;9.57;57.19;102468.44;4939128;29;20050;-70
2022/12/02 01:01:08;;;;;;;62.00;34.67;;;;;;;9.53;56.98;102465.00;4911444;29;20522;-71
2022/12/02 01:03:36;;;;;;;71.03;35.63;;;;;;;9.53;57.13;102464.13;4884229;29;20044;-71
2022/12/02 01:06:11;;;;;;;68.13;36.00;;;;;;;9.52;57.08;102475.81;4884584;29;20464;-70
2022/12/02 01:08:37;;;;;;;61.70;36.35;;;;;;;9.49;57.17;102476.81;4901219;29;20048;-71
2022/12/02 01:11:04;;;;;;;62.72;35.47;;;;;;;9.47;57.17;102459.03;4884322;29;20049;-71
2022/12/02 01:13:31;;;;;;;65.95;35.65;;;;;;;9.46;57.03;102463.50;4884057;29;20044;-70
2022/12/02 01:15:58;;;;;;;60.63;33.75;;;;;;;9.43;57.00;102458.28;4901125;29;20506;-71
2022/12/02 01:18:27;;;;;;;61.42;34.97;;;;;;;9.39;57.03;102456.66;4884279;29;20515;-71
2022/12/02 01:20:54;;;;;;;61.10;35.55;;;;;;;9.36;57.05;102454.09;4901106;29;20051;-71
2022/12/02 01:23:21;;;;;;;61.97;35.20;;;;;;;9.32;56.98;102455.16;4883562;29;20567;-71
2022/12/02 01:25:47;;;;;;;59.28;33.55;;;;;;;9.29;56.72;102447.25;4900416;29;20460;-70
2022/12/02 01:28:15;;;;;;;64.20;33.90;;;;;;;9.27;56.90;102454.47;4931598;29;20490;-71
2022/12/02 01:30:42;;;;;;;58.35;33.97;;;;;;;9.25;56.55;102448.28;4921606;29;20047;-71
2022/12/02 01:33:09;;;;;;;59.05;32.55;;;;;;;9.24;56.77;102451.91;4938610;29;20387;-71
2022/12/02 01:35:35;;;;;;;58.45;31.83;;;;;;;9.22;56.81;102460.00;4938627;29;20498;-70
2022/12/02 01:38:02;;;;;;;55.50;31.67;;;;;;;9.21;56.59;102458.25;4939043;29;20048;-72
2022/12/02 01:40:30;;;;;;;54.58;31.10;;;;;;;9.20;56.51;102459.19;4938630;29;20055;-70
2022/12/02 01:42:57;;;;;;;52.08;30.77;;;;;;;9.20;56.51;102463.69;4905632;29;20494;-70
2022/12/02 01:45:24;;;;;;;60.33;32.03;;;;;;;9.17;56.37;102455.78;4905728;29;20047;-70
2022/12/02 01:47:50;;;;;;;57.03;31.85;;;;;;;9.13;56.58;102460.38;4938459;29;20050;-71
2022/12/02 01:50:18;;;;;;;57.22;32.03;;;;;;;9.09;56.27;102463.25;4938382;29;20051;-71
2022/12/02 01:52:45;;;;;;;55.50;30.90;;;;;;;9.08;56.53;102458.81;4938098;29;20047;-71
2022/12/02 01:55:17;;;;;;;51.67;29.55;;;;;;;9.07;56.37;102452.59;4921079;29;20466;-71
2022/12/02 01:57:44;;;;;;;54.75;30.77;;;;;;;9.05;56.48;102453.56;4938193;29;20043;-70
2022/12/02 02:00:13;;;;;;;55.50;31.48;;;;;;;9.04;56.40;102459.88;4919024;29;20506;-70
2022/12/02 02:02:39;;;;;;;52.97;31.05;;;;;;;9.04;56.40;102462.56;4937358;29;20541;-70
2022/12/02 02:05:21;;;;;;;54.13;30.98;;;;;;;9.02;56.11;102459.06;4921141;29;20111;-71
2022/12/02 02:07:53;;;;;;;54.72;29.98;;;;;;;9.00;56.23;102453.75;4937989;29;20414;-70
2022/12/02 02:10:22;;;;;;;52.88;29.48;;;;;;;9.01;56.23;102454.63;4921421;29;20099;-72
2022/12/02 02:12:50;;;;;;;57.85;31.58;;;;;;;9.00;56.32;102452.88;4920721;29;20048;-72
2022/12/02 02:15:19;;;;;;;50.35;29.70;;;;;;;9.01;56.15;102454.63;4920953;29;20047;-71
2022/12/02 02:17:46;;;;;;;56.38;31.70;;;;;;;9.02;56.03;102456.38;4920711;29;20046;-71
2022/12/02 02:20:18;;;;;;;54.35;31.95;;;;;;;9.02;56.31;102459.06;4937930;29;20147;-72
2022/12/02 02:23:10;;;;;;;55.17;31.55;;;;;;;9.00;56.00;102448.41;4920467;29;20050;-69
2022/12/02 02:25:46;;;;;;;54.78;30.70;;;;;;;9.00;56.22;102447.53;4920617;29;20055;-70
2022/12/02 02:28:16;;;;;;;50.20;29.80;;;;;;;8.99;56.15;102445.78;4920871;29;20040;-70
2022/12/02 02:30:44;;;;;;;57.80;30.75;;;;;;;8.99;56.24;102443.97;4920546;29;20043;-71
2022/12/02 02:33:13;;;;;;;55.60;30.35;;;;;;;9.02;56.15;102446.53;4918128;29;20111;-70
2022/12/02 02:35:42;;;;;;;57.10;32.35;;;;;;;9.03;56.22;102439.38;4937220;29;20134;-70
2022/12/02 02:38:13;;;;;;;56.80;29.67;;;;;;;9.02;56.38;102429.56;4920899;29;20074;-70
2022/12/02 02:40:41;;;;;;;55.10;31.48;;;;;;;9.01;56.27;102435.88;4937287;29;20487;-70
2022/12/02 02:43:09;;;;;;;55.67;30.27;;;;;;;8.98;56.17;102426.16;4937430;29;20091;-71
2022/12/02 02:45:40;;;;;;;57.22;31.58;;;;;;;8.97;56.21;102434.25;4919881;29;20040;-70
2022/12/02 02:48:09;;;;;;;59.78;31.60;;;;;;;8.96;56.09;102427.13;4903996;29;20048;-70
2022/12/02 02:50:38;;;;;;;55.45;28.70;;;;;;;8.95;56.01;102431.63;4920273;29;20044;-69
2022/12/02 02:53:06;;;;;;;54.13;29.90;;;;;;;8.94;56.23;102429.00;4919768;29;20060;-69
2022/12/02 02:55:33;;;;;;;56.80;31.58;;;;;;;8.93;56.37;102424.59;4920249;29;20086;-70
2022/12/02 02:58:13;;;;;;;60.33;31.73;;;;;;;8.90;56.32;102422.84;4897950;29;20372;-70
2022/12/02 03:00:47;;;;;;;64.43;33.42;;;;;;;8.87;56.17;102426.53;4920096;29;20047;-71
2022/12/02 03:03:17;;;;;;;59.55;32.03;;;;;;;8.82;56.31;102424.97;4919934;29;20043;-70
2022/12/02 03:05:44;;;;;;;57.05;32.13;;;;;;;8.79;56.17;102422.41;4936989;29;20043;-70
2022/12/02 03:08:12;;;;;;;55.00;31.02;;;;;;;8.76;56.24;102428.75;4919869;29;20376;-70
2022/12/02 03:10:39;;;;;;;60.05;30.83;;;;;;;8.74;56.24;102421.72;4930593;29;20047;-71
2022/12/02 03:13:06;;;;;;;55.97;30.13;;;;;;;8.73;56.31;102410.13;4900512;29;20096;-70
2022/12/02 03:15:32;;;;;;;53.42;30.23;;;;;;;8.70;56.26;102398.66;4917640;29;20116;-71
2022/12/02 03:17:59;;;;;;;56.55;30.15;;;;;;;8.67;56.33;102409.47;4900972;29;20051;-70
2022/12/02 03:20:26;;;;;;;54.47;29.33;;;;;;;8.63;56.50;102399.81;4914205;29;20048;-71
2022/12/02 03:22:53;;;;;;;53.20;28.25;;;;;;;8.58;56.38;102411.56;4919297;29;20056;-69
2022/12/02 03:25:19;;;;;;;50.53;27.60;;;;;;;8.56;55.99;102409.88;4933133;29;20051;-70
2022/12/02 03:27:46;;;;;;;52.92;26.48;;;;;;;8.53;56.39;102410.00;4919860;29;20047;-70
2022/12/02 03:30:13;;;;;;;44.95;24.95;;;;;;;8.50;56.34;102402.97;4937025;29;20446;-70
2022/12/02 03:32:44;;;;;;;50.17;25.52;;;;;;;8.49;56.45;102403.03;4935453;29;20406;-70
2022/12/02 03:35:12;;;;;;;52.65;26.88;;;;;;;8.46;56.40;102404.00;4936756;29;20048;-69
2022/12/02 03:37:39;;;;;;;49.38;25.67;;;;;;;8.43;56.64;102398.78;4936735;29;20486;-70
2022/12/02 03:40:07;;;;;;;50.08;26.08;;;;;;;8.43;56.49;102401.44;4936596;29;20095;-70
2022/12/02 03:42:33;;;;;;;48.10;25.58;;;;;;;8.44;56.61;102397.84;4917765;29;20094;-72
2022/12/02 03:45:00;;;;;;;48.85;25.73;;;;;;;8.44;56.49;102383.59;4936574;29;20099;-71
2022/12/02 03:47:28;;;;;;;46.05;25.75;;;;;;;8.44;56.57;102378.22;4936243;29;20489;-70
2022/12/02 03:49:56;;;;;;;45.20;24.20;;;;;;;8.43;56.48;102380.03;4936304;29;20498;-70
2022/12/02 03:52:23;;;;;;;45.90;25.15;;;;;;;8.43;56.54;102390.72;4936024;29;20051;-71
2022/12/02 03:54:50;;;;;;;53.20;26.88;;;;;;;8.45;56.56;102377.28;4936468;29;20051;-70
2022/12/02 03:57:21;;;;;;;47.72;25.50;;;;;;;8.45;56.46;102374.63;4936403;29;20044;-70
2022/12/02 03:59:47;;;;;;;45.83;25.63;;;;;;;8.45;56.67;102371.94;4918484;29;20047;-71
2022/12/02 04:02:14;;;;;;;49.42;26.60;;;;;;;8.46;56.63;102369.19;4916920;29;20558;-71
2022/12/02 04:04:40;;;;;;;45.80;25.10;;;;;;;8.46;56.47;102371.00;4917200;29;20052;-71
2022/12/02 04:07:07;;;;;;;41.67;24.05;;;;;;;8.46;56.43;102365.66;4933137;29;20044;-69
2022/12/02 04:09:33;;;;;;;46.35;24.40;;;;;;;8.45;56.36;102372.81;4936177;29;20055;-71
2022/12/02 04:12:00;;;;;;;45.80;24.90;;;;;;;8.46;56.54;102379.03;4935873;29;20099;-71
2022/12/02 04:14:27;;;;;;;43.78;24.13;;;;;;;8.46;56.38;102376.38;4934699;29;20055;-70
2022/12/02 04:16:53;;;;;;;46.20;24.40;;;;;;;8.48;56.52;102367.34;4919107;29;20043;-70
2022/12/02 04:19:20;;;;;;;47.92;25.15;;;;;;;8.49;56.65;102371.75;4936068;29;20047;-70
2022/12/02 04:21:47;;;;;;;44.70;25.27;;;;;;;8.48;56.46;102380.72;4935040;29;20050;-70
2022/12/02 04:24:13;;;;;;;46.90;23.60;;;;;;;8.44;56.34;102383.59;4936123;29;20044;-71
2022/12/02 04:26:40;;;;;;;45.15;26.02;;;;;;;8.42;56.29;102378.28;4935999;29;20054;-72
2022/12/02 04:29:09;;;;;;;41.10;22.77;;;;;;;8.38;56.23;102376.66;4933373;29;20036;-71
2022/12/02 04:31:36;;;;;;;44.75;24.25;;;;;;;8.39;56.51;102372.16;4935105;29;20040;-70
2022/12/02 04:34:02;;;;;;;45.33;25.35;;;;;;;8.40;56.60;102379.28;4934973;29;20055;-70
2022/12/02 04:36:29;;;;;;;46.38;25.27;;;;;;;8.40;56.54;102366.75;4935941;29;20091;-70
2022/12/02 04:38:56;;;;;;;45.90;24.88;;;;;;;8.42;56.48;102378.28;4935864;29;20046;-71
2022/12/02 04:41:23;;;;;;;42.35;23.33;;;;;;;8.38;56.58;102365.06;4935997;29;20405;-71
2022/12/02 04:43:49;;;;;;;39.70;22.67;;;;;;;8.37;56.42;102360.66;4935631;29;20044;-70
2022/12/02 04:46:16;;;;;;;41.38;22.88;;;;;;;8.38;56.51;102362.41;4916706;29;20108;-70
2022/12/02 04:48:42;;;;;;;42.40;23.65;;;;;;;8.36;56.42;102356.22;4916610;29;20051;-70
2022/12/02 04:51:09;;;;;;;44.35;24.05;;;;;;;8.34;56.38;102356.28;4916716;29;20044;-70
2022/12/02 04:53:36;;;;;;;40.85;22.35;;;;;;;8.34;56.50;102352.72;4922102;29;20040;-71
2022/12/02 04:56:02;;;;;;;40.90;21.85;;;;;;;8.34;56.63;102347.38;4935744;29;20495;-71
2022/12/02 04:58:29;;;;;;;44.60;22.88;;;;;;;8.33;56.43;102350.94;4935705;29;20075;-71
2022/12/02 05:00:55;;;;;;;41.05;21.42;;;;;;;8.34;56.53;102337.53;4938875;29;20048;-70
2022/12/02 05:03:22;;;;;;;44.13;23.33;;;;;;;8.35;56.47;102333.06;4919889;29;20407;-71
2022/12/02 05:05:49;;;;;;;43.33;22.67;;;;;;;8.34;56.46;102342.03;4920225;29;20044;-71
2022/12/02 05:08:15;;;;;;;44.28;21.73;;;;;;;8.33;56.51;102337.56;4903833;29;20436;-71
2022/12/02 05:10:42;;;;;;;42.35;23.85;;;;;;;8.33;56.36;102332.22;4903221;29;20055;-71
2022/12/02 05:13:09;;;;;;;40.80;23.02;;;;;;;8.32;56.75;102342.06;4919975;29;20044;-71
2022/12/02 05:15:35;;;;;;;41.83;22.48;;;;;;;8.32;56.59;102342.06;4919959;29;20044;-72
2022/12/02 05:18:02;;;;;;;43.28;22.73;;;;;;;8.32;56.51;102333.16;4919913;29;20499;-72
2022/12/02 05:20:28;;;;;;;39.83;22.65;;;;;;;8.29;56.53;102342.16;4938922;29;20052;-71
2022/12/02 05:22:55;;;;;;;42.47;22.65;;;;;;;8.27;56.55;102331.53;4945540;29;20035;-70
2022/12/02 05:25:22;;;;;;;42.30;22.10;;;;;;;8.22;56.31;102330.81;4939966;29;20051;-71
2022/12/02 05:27:48;;;;;;;44.65;21.55;;;;;;;8.21;56.51;102318.38;4920805;29;20553;-71
2022/12/02 05:30:15;;;;;;;42.28;23.17;;;;;;;8.20;56.59;102326.47;4938795;29;20601;-71
2022/12/02 05:32:42;;;;;;;44.63;23.52;;;;;;;8.18;56.59;102326.50;4938848;29;20039;-72
2022/12/02 05:35:10;;;;;;;43.33;22.38;;;;;;;8.19;56.38;102325.59;4903560;29;20139;-71
2022/12/02 05:37:38;;;;;;;39.88;21.67;;;;;;;8.17;56.49;102327.41;4927331;29;20108;-71
2022/12/02 05:40:05;;;;;;;44.50;21.73;;;;;;;8.15;56.49;102323.91;4919644;29;20372;-70
2022/12/02 05:42:33;;;;;;;37.15;21.15;;;;;;;8.15;56.63;102317.69;4919573;29;20044;-72
2022/12/02 05:45:09;;;;;;;40.95;20.50;;;;;;;8.14;56.67;102327.53;4910523;29;20043;-71
2022/12/02 05:47:36;;;;;;;41.38;21.98;;;;;;;8.14;56.44;102330.19;4921446;29;20087;-71
2022/12/02 05:50:06;;;;;;;37.28;20.58;;;;;;;8.15;56.72;102331.06;4938490;29;20051;-71
2022/12/02 05:52:33;;;;;;;37.42;20.73;;;;;;;8.16;56.80;102331.03;4919650;29;20106;-71
2022/12/02 05:55:10;;;;;;;36.22;20.38;;;;;;;8.17;56.71;102324.72;4938271;29;20051;-71
2022/12/02 05:57:36;;;;;;;38.88;21.92;;;;;;;8.19;56.61;102332.75;4938918;29;20047;-71
2022/12/02 06:00:19;;;;;;;38.85;20.90;;;;;;;8.20;56.68;102326.47;4938209;29;20043;-71
2022/12/02 06:02:50;;;;;;;39.58;21.05;;;;;;;8.18;56.64;102323.84;4938066;29;20051;-71
2022/12/02 06:05:36;;;;;;;40.63;20.92;;;;;;;8.17;56.71;102319.38;4933652;29;20044;-70
2022/12/02 06:08:21;;;;;;;;;;;;;;;8.20;56.65;102321.97;4912596;29;20101;-70
2022/12/02 06:10:50;;;;;;;36.80;18.27;;;;;;;8.22;56.60;102320.13;4909953;29;19923;-70
2022/12/02 06:13:22;;;;;;;36.85;17.50;;;;;;;8.20;56.59;102329.13;4907367;29;20487;-71
2022/12/02 06:15:50;;;;;;;36.55;18.35;;;;;;;8.18;56.83;102317.63;4909976;29;20104;-69
2022/12/02 06:18:31;;;;;;;37.72;18.60;;;;;;;8.16;56.71;102314.09;4892534;29;20393;-69
2022/12/02 06:21:12;;;;;;;34.13;18.30;;;;;;;8.14;56.77;102318.63;4910059;29;20408;-70
2022/12/02 06:23:44;;;;;;;34.80;17.95;;;;;;;8.15;56.83;102323.91;4904639;29;20063;-71
2022/12/02 06:26:15;;;;;;;35.47;17.70;;;;;;;8.15;56.78;102320.38;4910345;29;20444;-71
2022/12/02 06:28:45;;;;;;;32.65;17.77;;;;;;;8.17;56.89;102319.38;4918684;29;20178;-70
2022/12/02 06:31:20;;;;;;;34.90;18.40;;;;;;;8.18;56.87;102321.16;4918928;29;20048;-71
2022/12/02 06:33:49;;;;;;;37.42;18.23;;;;;;;8.19;56.83;102314.00;4901713;29;20044;-71
2022/12/02 06:36:30;;;;;;;35.42;17.98;;;;;;;8.17;56.87;102313.16;4918489;29;20120;-72
2022/12/02 06:39:02;;;;;;;31.88;17.38;;;;;;;8.18;56.94;102318.47;4900100;29;20045;-71
2022/12/02 06:41:35;;;;;;;35.88;18.27;;;;;;;8.21;56.78;102317.50;4900626;29;20053;-71
2022/12/02 06:47:35;;;;;;;31.52;17.65;;;;;;;8.19;57.06;102319.34;4890003;29;20060;-72
2022/12/02 06:50:04;;;;;;;37.42;18.05;;;;;;;8.19;56.95;102314.88;4883399;29;20098;-71
2022/12/02 06:52:38;;;;;;;38.60;19.83;;;;;;;8.18;57.09;102313.13;4918255;29;20071;-71
2022/12/02 06:55:34;;;;;;;33.22;18.65;;;;;;;8.18;56.91;102315.81;4901209;29;20048;-70
2022/12/02 06:58:45;;;;;;;36.05;18.08;;;;;;;8.16;57.15;102306.94;4901355;29;20052;-71
2022/12/02 07:01:40;;;;;;;32.67;17.40;;;;;;;8.14;56.99;102311.47;4918432;29;20048;-71
2022/12/02 07:04:28;;;;;;;31.65;17.83;;;;;;;8.13;56.98;102317.75;4899324;29;20049;-68
2022/12/02 07:07:11;;;;;;;35.20;18.02;;;;;;;8.11;56.92;102324.97;4899228;29;20052;-71
2022/12/02 07:09:45;;;;;;;35.55;19.40;;;;;;;8.09;57.02;102316.13;4899328;29;20079;-71
2022/12/02 07:12:29;;;;;;;36.50;18.08;;;;;;;8.10;57.11;102319.66;4897805;29;20079;-72
2022/12/02 07:15:01;;;;;;;31.55;17.25;;;;;;;8.12;57.11;102321.34;4917401;29;20052;-71
2022/12/02 07:17:35;;;;;;;34.53;18.90;;;;;;;8.13;57.18;102325.78;4885908;29;20447;-71
2022/12/02 07:20:21;;;;;;;35.85;19.85;;;;;;;8.10;57.04;102322.34;4936670;29;20508;-71
2022/12/02 07:23:14;;;;;;;35.53;18.70;;;;;;;8.07;57.05;102322.47;4935529;29;20394;-72
2022/12/02 07:25:44;;;;;;;34.50;17.13;;;;;;;8.06;57.13;102326.94;4930890;29;20400;-71
2022/12/02 07:28:22;;;;;;;33.72;17.83;;;;;;;8.07;57.12;102325.13;4916655;29;20084;-71
2022/12/02 07:31:15;;;;;;;34.15;18.63;;;;;;;8.06;57.28;102329.63;4917374;29;20123;-72
2022/12/02 07:33:41;;;;;;;31.83;17.67;;;;;;;8.08;57.04;102325.06;4916927;29;20036;-71
2022/12/02 07:36:08;;;;;;;35.15;19.27;;;;;;;8.07;57.28;102325.13;4917385;29;20055;-72
2022/12/02 07:38:35;;;;;;;37.13;19.08;;;;;;;8.07;57.02;102326.00;4917397;29;20042;-71
2022/12/02 07:41:22;;;;;;;40.63;20.65;;;;;;;8.08;57.15;102326.88;4887412;29;20040;-72
2022/12/02 07:43:48;;;;;;;39.00;20.42;;;;;;;8.05;56.99;102330.53;4916974;29;20047;-69
2022/12/02 07:46:15;;;;;;;37.20;21.27;;;;;;;8.05;57.23;102327.88;4915883;29;20062;-68
2022/12/02 07:48:42;;;;;;;37.50;20.65;;;;;;;8.05;57.05;102324.31;4916933;29;20048;-68
2022/12/02 07:51:08;;;;;;;40.53;21.08;;;;;;;8.03;57.12;102321.69;4916833;29;20532;-69
2022/12/02 07:53:35;;;;;;;40.38;21.10;;;;;;;8.04;57.19;102334.16;4916845;29;20079;-68
2022/12/02 07:56:03;;;;;;;37.72;20.60;;;;;;;8.07;57.17;102334.03;4900099;29;20064;-68
2022/12/02 07:58:29;;;;;;;42.72;23.10;;;;;;;8.07;57.25;102336.72;4917173;29;20403;-68
2022/12/02 08:01:16;;;;;;;44.60;22.10;;;;;;;8.09;57.33;102336.66;4915912;29;20119;-68
2022/12/02 08:03:45;;;;;;;43.92;22.70;;;;;;;8.08;57.15;102334.91;4915737;29;20115;-68
2022/12/02 08:06:11;;;;;;;45.45;24.48;;;;;;;8.07;57.42;102326.00;4903843;29;20051;-68
2022/12/02 08:08:38;;;;;;;40.90;22.50;;;;;;;8.07;57.45;102330.47;4921175;29;20059;-68
2022/12/02 08:11:05;;;;;;;41.90;22.45;;;;;;;8.07;57.27;102335.84;4899958;29;20056;-68
2022/12/02 08:13:31;;;;;;;41.60;22.90;;;;;;;8.03;57.62;102332.41;4914231;29;20044;-67
2022/12/02 08:15:58;;;;;;;43.10;23.63;;;;;;;8.03;57.61;102332.41;4879262;29;20059;-68
2022/12/02 08:18:24;;;;;;;44.28;22.13;;;;;;;8.04;57.64;102328.78;4916852;29;20495;-68
2022/12/02 08:20:51;;;;;;;37.05;20.75;;;;;;;8.04;57.79;102336.81;4915384;29;20108;-68
2022/12/02 08:23:20;;;;;;;40.55;20.50;;;;;;;8.01;57.81;102336.06;4929120;29;20091;-68
2022/12/02 08:25:46;;;;;;;38.38;20.27;;;;;;;7.98;57.82;102335.25;4935480;29;20058;-67
2022/12/02 08:28:13;;;;;;;38.72;20.25;;;;;;;7.99;57.88;102338.78;4935804;29;20402;-68
2022/12/02 08:30:40;;;;;;;34.10;18.73;;;;;;;7.99;57.90;102338.78;4935543;29;20040;-67
2022/12/02 08:33:07;;;;;;;32.03;18.80;;;;;;;7.96;58.06;102337.09;4927974;29;20526;-68
2022/12/02 08:35:33;;;;;;;30.65;16.50;;;;;;;7.95;58.20;102331.81;4919399;29;20062;-68
2022/12/02 08:38:00;;;;;;;32.58;17.75;;;;;;;7.93;58.29;102336.34;4938636;29;20043;-68
2022/12/02 08:40:26;;;;;;;34.67;16.83;;;;;;;7.92;58.16;102335.47;4939504;29;20046;-67
2022/12/02 08:42:53;;;;;;;38.80;17.25;;;;;;;7.90;58.38;102331.97;4938914;29;20111;-68
2022/12/02 08:45:19;;;;;;;33.85;16.70;;;;;;;7.91;58.36;102332.84;4939207;29;20059;-67
2022/12/02 08:47:46;;;;;;;32.17;16.80;;;;;;;7.91;58.11;102336.41;4939317;29;20047;-68
2022/12/02 08:50:13;;;;;;;30.40;15.52;;;;;;;7.90;58.82;102331.97;4939819;29;20047;-67
2022/12/02 08:52:40;;;;;;;35.65;16.70;;;;;;;7.87;58.52;102329.41;4930954;29;20446;-68
2022/12/02 08:55:07;;;;;;;37.70;17.30;;;;;;;7.87;58.57;102328.53;4938820;29;20081;-68
2022/12/02 08:57:33;;;;;;;31.17;16.95;;;;;;;7.86;58.69;102329.47;4939766;29;20558;-67
2022/12/02 09:00:00;;;;;;;35.17;17.23;;;;;;;7.86;58.39;102327.66;4939164;29;20050;-68
2022/12/02 09:02:27;;;;;;;34.45;17.77;;;;;;;7.86;58.75;102327.66;4938549;29;20043;-67
2022/12/02 09:04:53;;;;;;;33.13;17.15;;;;;;;7.86;58.67;102330.34;4938427;29;20051;-67
2022/12/02 09:07:20;;;;;;;39.05;18.27;;;;;;;7.87;58.77;102340.13;4936838;29;20398;-69
2022/12/02 09:09:47;;;;;;;34.75;17.52;;;;;;;7.87;58.77;102329.41;4937004;29;20052;-68
2022/12/02 09:12:14;;;;;;;37.08;17.40;;;;;;;7.86;58.95;102330.34;4937035;29;20054;-68
2022/12/02 09:14:40;;;;;;;34.67;17.98;;;;;;;7.88;58.91;102336.50;4937299;29;20068;-68
2022/12/02 09:17:07;;;;;;;36.35;18.48;;;;;;;7.89;59.11;102329.34;4937095;29;20043;-67
2022/12/02 09:19:33;;;;;;;39.33;19.05;;;;;;;7.90;58.94;102325.75;4937010;29;20130;-67
2022/12/02 09:22:00;;;;;;;37.13;19.30;;;;;;;7.89;58.96;102335.59;4938388;29;20048;-67
2022/12/02 09:24:27;;;;;;;35.55;18.17;;;;;;;7.87;58.92;102332.09;4938861;29;20035;-67
2022/12/02 09:26:53;;;;;;;45.42;19.48;;;;;;;7.87;58.97;102325.88;4938596;29;20051;-67
2022/12/02 09:29:19;;;;;;;44.17;19.38;;;;;;;7.86;58.94;102325.00;4938591;29;20043;-67
2022/12/02 09:31:46;;;;;;;34.25;17.88;;;;;;;7.85;59.04;102320.56;4921997;29;20043;-67
2022/12/02 09:34:12;;;;;;;45.20;19.83;;;;;;;7.85;59.16;102331.28;4938386;29;20071;-67
2022/12/02 09:36:40;;;;;;;40.13;18.95;;;;;;;7.85;59.23;102327.72;4938392;29;20059;-67
2022/12/02 09:39:07;;;;;;;39.30;19.65;;;;;;;7.85;59.33;102319.69;4938432;29;20054;-67
2022/12/02 09:41:33;;;;;;;36.10;19.83;;;;;;;7.87;59.45;102320.53;4938016;29;20055;-67
2022/12/02 09:44:00;;;;;;;43.13;20.00;;;;;;;7.89;59.41;102326.69;4938164;29;20126;-67
2022/12/02 09:46:27;;;;;;;41.13;20.15;;;;;;;7.90;59.32;102318.59;4937590;29;20491;-67
2022/12/02 09:48:54;;;;;;;45.85;21.30;;;;;;;7.90;59.55;102315.94;4938271;29;20060;-67
2022/12/02 09:51:21;;;;;;;46.70;23.20;;;;;;;7.87;59.53;102301.78;4938076;29;20098;-67
2022/12/02 09:53:47;;;;;;;51.55;21.65;;;;;;;7.86;59.48;102308.94;4937728;29;20051;-67
2022/12/02 09:56:16;;;;;;;49.35;21.52;;;;;;;7.88;59.48;102322.25;4937969;29;20047;-66
2022/12/02 09:58:46;;;;;;;47.90;22.50;;;;;;;7.88;59.59;102319.59;4921309;29;20577;-67
2022/12/02 10:01:13;;;;;;;51.22;23.95;;;;;;;7.88;59.51;102306.22;4937987;29;20047;-68
2022/12/02 10:03:41;;;;;;;55.17;24.92;;;;;;;7.90;59.63;102312.38;4920754;29;20109;-67
2022/12/02 10:06:16;;;;;;;51.63;23.05;;;;;;;7.90;59.58;102309.72;4921097;29;20048;-67
2022/12/02 10:08:43;;;;;;;51.03;24.15;;;;;;;7.92;59.62;102298.03;4937957;29;20051;-67
2022/12/02 10:11:20;;;;;;;54.92;23.52;;;;;;;7.93;59.70;102306.91;4921095;29;20044;-68
2022/12/02 10:13:47;;;;;;;54.03;23.70;;;;;;;7.94;59.62;102306.00;4937479;29;20044;-67
2022/12/02 10:16:14;;;;;;;48.13;23.23;;;;;;;7.96;59.53;102301.47;4937849;29;20051;-67
2022/12/02 10:18:41;;;;;;;46.95;21.73;;;;;;;7.98;59.52;102303.16;4920831;29;20048;-67
2022/12/02 10:21:08;;;;;;;53.13;23.60;;;;;;;8.01;59.59;102294.13;4937777;29;20052;-66
2022/12/02 10:24:01;;;;;;;52.83;23.63;;;;;;;8.02;59.60;102306.56;4937153;29;20047;-67
2022/12/02 10:26:51;;;;;;;53.50;23.38;;;;;;;8.04;59.51;102304.72;4937737;29;20074;-67
2022/12/02 10:29:29;;;;;;;51.03;24.42;;;;;;;8.07;59.50;102299.25;4937392;29;20062;-67
2022/12/02 10:32:04;;;;;;;48.03;22.83;;;;;;;8.10;59.47;102295.59;4937538;29;20406;-67
2022/12/02 10:34:33;;;;;;;57.47;24.70;;;;;;;8.10;59.45;102299.13;4920466;29;20039;-68
2022/12/02 10:37:24;;;;;;;50.22;22.65;;;;;;;8.11;59.62;102291.97;4937518;29;20070;-67
2022/12/02 10:40:14;;;;;;;56.40;23.73;;;;;;;8.15;59.73;102291.81;4937367;29;20517;-67
2022/12/02 10:42:42;;;;;;;51.25;23.20;;;;;;;8.16;59.47;102295.34;4922872;29;20107;-67
2022/12/02 10:45:16;;;;;;;57.15;23.65;;;;;;;8.16;59.47;102292.69;4937298;29;20036;-67
2022/12/02 10:47:43;;;;;;;58.63;23.92;;;;;;;8.18;59.49;102291.72;4920403;29;20581;-68
2022/12/02 10:50:21;;;;;;;56.63;24.45;;;;;;;8.20;59.45;102286.31;4937108;29;20047;-67
2022/12/02 10:52:57;;;;;;;59.47;25.67;;;;;;;8.20;59.51;102279.16;4919690;29;20478;-66
2022/12/02 10:55:26;;;;;;;62.20;25.00;;;;;;;8.22;59.39;102290.69;4937013;29;20043;-67
2022/12/02 10:57:54;;;;;;;51.63;23.20;;;;;;;8.22;59.73;102282.66;4936175;29;20040;-68
2022/12/02 11:00:24;;;;;;;61.33;25.95;;;;;;;8.23;59.66;102281.72;4937204;29;20044;-67
2022/12/02 11:02:55;;;;;;;49.05;23.55;;;;;;;8.26;59.27;102273.56;4936503;29;20040;-66
2022/12/02 11:05:32;;;;;;;55.38;24.17;;;;;;;8.28;59.37;102274.38;4936980;29;20149;-67
2022/12/02 11:08:04;;;;;;;53.35;24.10;;;;;;;8.31;59.37;102269.84;4919887;29;20411;-67
2022/12/02 11:10:36;;;;;;;53.53;24.27;;;;;;;8.28;59.14;102279.72;4937013;29;20043;-66
2022/12/02 11:13:44;;;;;;;55.38;23.00;;;;;;;8.24;59.38;102286.13;4919454;29;20039;-67
2022/12/02 11:16:25;;;;;;;54.88;22.98;;;;;;;8.24;59.29;102277.22;4904457;29;20059;-67
2022/12/02 11:19:12;;;;;;;50.10;23.33;;;;;;;8.22;59.19;102274.63;4936648;29;20048;-67
2022/12/02 11:21:41;;;;;;;58.15;23.65;;;;;;;8.22;59.14;102282.66;4936237;29;20059;-67
2022/12/02 11:24:22;;;;;;;49.97;22.55;;;;;;;8.21;59.15;102274.69;4936356;29;20372;-67
2022/12/02 11:26:58;;;;;;;53.85;21.75;;;;;;;8.19;58.96;102274.75;4936764;29;20040;-66
2022/12/02 11:29:26;;;;;;;46.10;21.30;;;;;;;8.18;59.03;102273.00;4936457;29;20091;-67
2022/12/02 11:32:03;;;;;;;51.45;22.08;;;;;;;8.18;59.00;102272.13;4935969;29;20102;-67
2022/12/02 11:34:44;;;;;;;51.60;22.45;;;;;;;8.18;59.14;102270.31;4936438;29;20122;-67
2022/12/02 11:37:36;;;;;;;48.40;21.33;;;;;;;8.21;59.06;102272.00;4919365;29;20098;-67
2022/12/02 11:40:05;;;;;;;49.58;21.27;;;;;;;8.21;58.92;102262.16;4919374;29;20043;-66